sensor_id;sensor_type;location;lat;lon;timestamp;pressure;altitude;pressure_sealevel;temperature
63113;BMP280;49206;48.020;21.378;2022-12-20T00:00:00;102573.69;;;-3.87
63113;BMP280;49206;48.020;21.378;2022-12-20T00:01:14;102577.25;;;-3.88
63113;BMP280;49206;48.020;21.378;2022-12-20T00:02:17;102584.34;;;-3.90
63113;BMP280;49206;48.020;21.378;2022-12-20T00:03:19;102578.44;;;-3.98
63113;BMP280;49206;48.020;21.378;2022-12-20T00:04:22;102578.56;;;-4.06
63113;BMP280;49206;48.020;21.378;2022-12-20T00:05:24;102578.19;;;-4.03
63113;BMP280;49206;48.020;21.378;2022-12-20T00:06:27;102576.69;;;-3.98
63113;BMP280;49206;48.020;21.378;2022-12-20T00:07:30;102581.03;;;-3.98
63113;BMP280;49206;48.020;21.378;2022-12-20T00:08:33;102581.84;;;-3.98
63113;BMP280;49206;48.020;21.378;2022-12-20T00:09:37;102578.66;;;-4.00
63113;BMP280;49206;48.020;21.378;2022-12-20T00:10:41;102579.72;;;-3.94
63113;BMP280;49206;48.020;21.378;2022-12-20T00:11:44;102580.34;;;-3.92
63113;BMP280;49206;48.020;21.378;2022-12-20T00:12:47;102576.63;;;-3.90
63113;BMP280;49206;48.020;21.378;2022-12-20T00:13:49;102583.44;;;-3.97
63113;BMP280;49206;48.020;21.378;2022-12-20T00:14:52;102580.88;;;-3.97
63113;BMP280;49206;48.020;21.378;2022-12-20T00:17:09;102573.66;;;-4.01
63113;BMP280;49206;48.020;21.378;2022-12-20T00:18:13;102576.59;;;-4.04
63113;BMP280;49206;48.020;21.378;2022-12-20T00:19:15;102569.19;;;-4.07
63113;BMP280;49206;48.020;21.378;2022-12-20T00:20:18;102566.00;;;-4.09
63113;BMP280;49206;48.020;21.378;2022-12-20T00:21:21;102563.19;;;-4.00
63113;BMP280;49206;48.020;21.378;2022-12-20T00:22:23;102563.97;;;-3.99
63113;BMP280;49206;48.020;21.378;2022-12-20T00:23:26;102561.66;;;-3.94
63113;BMP280;49206;48.020;21.378;2022-12-20T00:24:30;102559.94;;;-4.02
63113;BMP280;49206;48.020;21.378;2022-12-20T00:25:34;102567.41;;;-4.07
63113;BMP280;49206;48.020;21.378;2022-12-20T00:26:36;102559.84;;;-4.08
63113;BMP280;49206;48.020;21.378;2022-12-20T00:27:39;102565.00;;;-4.08
63113;BMP280;49206;48.020;21.378;2022-12-20T00:28:43;102558.81;;;-3.99
63113;BMP280;49206;48.020;21.378;2022-12-20T00:29:46;102563.88;;;-3.91
63113;BMP280;49206;48.020;21.378;2022-12-20T00:30:53;102565.47;;;-3.90
63113;BMP280;49206;48.020;21.378;2022-12-20T00:31:55;102559.19;;;-3.88
63113;BMP280;49206;48.020;21.378;2022-12-20T00:32:57;102558.22;;;-3.87
63113;BMP280;49206;48.020;21.378;2022-12-20T00:34:00;102563.19;;;-3.85
63113;BMP280;49206;48.020;21.378;2022-12-20T00:35:03;102553.34;;;-3.82
63113;BMP280;49206;48.020;21.378;2022-12-20T00:36:06;102563.72;;;-3.75
63113;BMP280;49206;48.020;21.378;2022-12-20T00:37:10;102557.63;;;-3.74
63113;BMP280;49206;48.020;21.378;2022-12-20T00:38:12;102554.03;;;-3.73
63113;BMP280;49206;48.020;21.378;2022-12-20T00:39:15;102554.41;;;-3.76
63113;BMP280;49206;48.020;21.378;2022-12-20T00:40:18;102561.09;;;-3.82
63113;BMP280;49206;48.020;21.378;2022-12-20T00:41:23;102560.63;;;-3.85
63113;BMP280;49206;48.020;21.378;2022-12-20T00:42:26;102564.88;;;-3.92
63113;BMP280;49206;48.020;21.378;2022-12-20T00:43:29;102548.91;;;-3.96
63113;BMP280;49206;48.020;21.378;2022-12-20T00:44:32;102559.59;;;-3.99
63113;BMP280;49206;48.020;21.378;2022-12-20T00:45:34;102554.53;;;-3.92
63113;BMP280;49206;48.020;21.378;2022-12-20T00:46:38;102559.03;;;-3.86
63113;BMP280;49206;48.020;21.378;2022-12-20T00:47:43;102552.25;;;-3.87
63113;BMP280;49206;48.020;21.378;2022-12-20T00:48:46;102560.72;;;-3.79
63113;BMP280;49206;48.020;21.378;2022-12-20T00:49:48;102554.88;;;-3.73
63113;BMP280;49206;48.020;21.378;2022-12-20T00:50:51;102558.88;;;-3.70
63113;BMP280;49206;48.020;21.378;2022-12-20T00:51:54;102551.03;;;-3.62
63113;BMP280;49206;48.020;21.378;2022-12-20T00:52:56;102558.78;;;-3.62
63113;BMP280;49206;48.020;21.378;2022-12-20T00:53:59;102562.63;;;-3.58
63113;BMP280;49206;48.020;21.378;2022-12-20T00:55:01;102560.47;;;-3.55
63113;BMP280;49206;48.020;21.378;2022-12-20T00:56:05;102554.88;;;-3.58
63113;BMP280;49206;48.020;21.378;2022-12-20T00:57:11;102556.13;;;-3.54
63113;BMP280;49206;48.020;21.378;2022-12-20T00:58:13;102554.88;;;-3.58
63113;BMP280;49206;48.020;21.378;2022-12-20T00:59:16;102556.19;;;-3.62
63113;BMP280;49206;48.020;21.378;2022-12-20T01:00:18;102562.53;;;-3.65
63113;BMP280;49206;48.020;21.378;2022-12-20T01:01:27;102555.41;;;-3.63
63113;BMP280;49206;48.020;21.378;2022-12-20T01:02:31;102556.38;;;-3.64
63113;BMP280;49206;48.020;21.378;2022-12-20T01:03:34;102554.00;;;-3.65
63113;BMP280;49206;48.020;21.378;2022-12-20T01:04:36;102556.56;;;-3.65
63113;BMP280;49206;48.020;21.378;2022-12-20T01:05:39;102558.09;;;-3.56
63113;BMP280;49206;48.020;21.378;2022-12-20T01:06:42;102555.78;;;-3.51
63113;BMP280;49206;48.020;21.378;2022-12-20T01:07:45;102545.06;;;-3.48
63113;BMP280;49206;48.020;21.378;2022-12-20T01:08:47;102550.59;;;-3.51
63113;BMP280;49206;48.020;21.378;2022-12-20T01:09:51;102544.38;;;-3.57
63113;BMP280;49206;48.020;21.378;2022-12-20T01:11:06;102540.44;;;-3.53
63113;BMP280;49206;48.020;21.378;2022-12-20T01:12:09;102547.28;;;-3.45
63113;BMP280;49206;48.020;21.378;2022-12-20T01:13:12;102547.47;;;-3.47
63113;BMP280;49206;48.020;21.378;2022-12-20T01:14:15;102538.94;;;-3.47
63113;BMP280;49206;48.020;21.378;2022-12-20T01:15:18;102539.22;;;-3.42
63113;BMP280;49206;48.020;21.378;2022-12-20T01:16:26;102533.78;;;-3.47
63113;BMP280;49206;48.020;21.378;2022-12-20T01:17:29;102537.59;;;-3.43
63113;BMP280;49206;48.020;21.378;2022-12-20T01:18:39;102540.91;;;-3.35
63113;BMP280;49206;48.020;21.378;2022-12-20T01:19:42;102536.72;;;-3.36
63113;BMP280;49206;48.020;21.378;2022-12-20T01:20:45;102532.78;;;-3.32
63113;BMP280;49206;48.020;21.378;2022-12-20T01:21:48;102535.25;;;-3.24
63113;BMP280;49206;48.020;21.378;2022-12-20T01:22:50;102539.63;;;-3.24
63113;BMP280;49206;48.020;21.378;2022-12-20T01:23:53;102533.66;;;-3.25
63113;BMP280;49206;48.020;21.378;2022-12-20T01:24:56;102534.81;;;-3.27
63113;BMP280;49206;48.020;21.378;2022-12-20T01:26:00;102537.31;;;-3.19
63113;BMP280;49206;48.020;21.378;2022-12-20T01:27:03;102536.34;;;-3.18
63113;BMP280;49206;48.020;21.378;2022-12-20T01:28:05;102528.75;;;-3.20
63113;BMP280;49206;48.020;21.378;2022-12-20T01:29:08;102527.31;;;-3.22
63113;BMP280;49206;48.020;21.378;2022-12-20T01:30:11;102522.78;;;-3.20
63113;BMP280;49206;48.020;21.378;2022-12-20T01:31:16;102520.84;;;-3.18
63113;BMP280;49206;48.020;21.378;2022-12-20T01:32:20;102524.56;;;-3.21
63113;BMP280;49206;48.020;21.378;2022-12-20T01:33:22;102522.44;;;-3.17
63113;BMP280;49206;48.020;21.378;2022-12-20T01:34:25;102512.53;;;-3.14
63113;BMP280;49206;48.020;21.378;2022-12-20T01:35:27;102505.94;;;-3.16
63113;BMP280;49206;48.020;21.378;2022-12-20T01:36:32;102507.56;;;-3.15
63113;BMP280;49206;48.020;21.378;2022-12-20T01:37:35;102507.38;;;-3.14
63113;BMP280;49206;48.020;21.378;2022-12-20T01:38:38;102508.44;;;-3.08
63113;BMP280;49206;48.020;21.378;2022-12-20T01:39:40;102506.41;;;-3.13
63113;BMP280;49206;48.020;21.378;2022-12-20T01:40:43;102506.59;;;-3.14
63113;BMP280;49206;48.020;21.378;2022-12-20T01:41:46;102508.34;;;-3.15
63113;BMP280;49206;48.020;21.378;2022-12-20T01:42:49;102505.00;;;-3.15
63113;BMP280;49206;48.020;21.378;2022-12-20T01:43:57;102498.84;;;-3.14
63113;BMP280;49206;48.020;21.378;2022-12-20T01:45:00;102498.28;;;-3.10
63113;BMP280;49206;48.020;21.378;2022-12-20T01:46:02;102502.84;;;-3.12
63113;BMP280;49206;48.020;21.378;2022-12-20T01:47:06;102502.75;;;-3.18
63113;BMP280;49206;48.020;21.378;2022-12-20T01:48:11;102495.63;;;-3.16
63113;BMP280;49206;48.020;21.378;2022-12-20T01:49:31;102494.91;;;-3.10
63113;BMP280;49206;48.020;21.378;2022-12-20T01:50:36;102499.50;;;-3.06
63113;BMP280;49206;48.020;21.378;2022-12-20T01:51:42;102490.00;;;-3.05
63113;BMP280;49206;48.020;21.378;2022-12-20T01:52:46;102495.34;;;-3.07
63113;BMP280;49206;48.020;21.378;2022-12-20T01:53:54;102493.75;;;-3.08
63113;BMP280;49206;48.020;21.378;2022-12-20T01:56:02;102493.66;;;-3.14
63113;BMP280;49206;48.020;21.378;2022-12-20T01:57:30;102490.09;;;-3.13
63113;BMP280;49206;48.020;21.378;2022-12-20T01:58:36;102479.75;;;-3.13
63113;BMP280;49206;48.020;21.378;2022-12-20T01:59:42;102482.59;;;-3.08
63113;BMP280;49206;48.020;21.378;2022-12-20T02:00:46;102482.59;;;-3.08
63113;BMP280;49206;48.020;21.378;2022-12-20T02:01:48;102478.53;;;-3.17
63113;BMP280;49206;48.020;21.378;2022-12-20T02:02:51;102475.16;;;-3.18
63113;BMP280;49206;48.020;21.378;2022-12-20T02:03:56;102479.59;;;-3.26
63113;BMP280;49206;48.020;21.378;2022-12-20T02:05:00;102476.84;;;-3.25
63113;BMP280;49206;48.020;21.378;2022-12-20T02:06:23;102474.84;;;-3.23
63113;BMP280;49206;48.020;21.378;2022-12-20T02:07:28;102482.69;;;-3.16
63113;BMP280;49206;48.020;21.378;2022-12-20T02:08:32;102480.56;;;-3.13
63113;BMP280;49206;48.020;21.378;2022-12-20T02:09:35;102475.03;;;-3.10
63113;BMP280;49206;48.020;21.378;2022-12-20T02:11:14;102471.25;;;-3.07
63113;BMP280;49206;48.020;21.378;2022-12-20T02:12:23;102478.06;;;-3.21
63113;BMP280;49206;48.020;21.378;2022-12-20T02:16:01;102473.84;;;-3.07
63113;BMP280;49206;48.020;21.378;2022-12-20T02:17:27;102469.91;;;-3.03
63113;BMP280;49206;48.020;21.378;2022-12-20T02:18:42;102472.25;;;-3.08
63113;BMP280;49206;48.020;21.378;2022-12-20T02:21:39;102467.09;;;-3.08
63113;BMP280;49206;48.020;21.378;2022-12-20T02:24:24;102477.75;;;-3.18
63113;BMP280;49206;48.020;21.378;2022-12-20T02:30:09;102469.00;;;-3.17
63113;BMP280;49206;48.020;21.378;2022-12-20T02:31:14;102462.91;;;-3.09
63113;BMP280;49206;48.020;21.378;2022-12-20T02:32:23;102460.44;;;-3.17
63113;BMP280;49206;48.020;21.378;2022-12-20T02:33:27;102455.41;;;-3.19
63113;BMP280;49206;48.020;21.378;2022-12-20T02:34:32;102454.63;;;-3.19
63113;BMP280;49206;48.020;21.378;2022-12-20T02:35:37;102452.34;;;-3.14
63113;BMP280;49206;48.020;21.378;2022-12-20T02:36:43;102451.94;;;-3.11
63113;BMP280;49206;48.020;21.378;2022-12-20T02:37:47;102446.78;;;-3.11
63113;BMP280;49206;48.020;21.378;2022-12-20T02:38:51;102443.94;;;-3.16
63113;BMP280;49206;48.020;21.378;2022-12-20T02:39:54;102453.31;;;-3.15
63113;BMP280;49206;48.020;21.378;2022-12-20T02:41:01;102444.59;;;-3.14
63113;BMP280;49206;48.020;21.378;2022-12-20T02:42:09;102444.19;;;-3.11
63113;BMP280;49206;48.020;21.378;2022-12-20T02:43:12;102443.00;;;-3.15
63113;BMP280;49206;48.020;21.378;2022-12-20T02:44:37;102443.59;;;-3.13
63113;BMP280;49206;48.020;21.378;2022-12-20T02:46:08;102442.19;;;-3.16
63113;BMP280;49206;48.020;21.378;2022-12-20T02:47:16;102440.41;;;-3.15
63113;BMP280;49206;48.020;21.378;2022-12-20T02:48:22;102431.91;;;-3.09
63113;BMP280;49206;48.020;21.378;2022-12-20T02:49:30;102433.50;;;-3.08
63113;BMP280;49206;48.020;21.378;2022-12-20T02:50:42;102427.09;;;-3.12
63113;BMP280;49206;48.020;21.378;2022-12-20T02:51:47;102438.50;;;-3.07
63113;BMP280;49206;48.020;21.378;2022-12-20T02:52:50;102434.91;;;-3.06
63113;BMP280;49206;48.020;21.378;2022-12-20T02:53:53;102439.91;;;-3.04
63113;BMP280;49206;48.020;21.378;2022-12-20T02:54:57;102436.50;;;-3.05
63113;BMP280;49206;48.020;21.378;2022-12-20T02:58:22;102439.91;;;-3.19
63113;BMP280;49206;48.020;21.378;2022-12-20T02:59:35;102431.66;;;-3.14
63113;BMP280;49206;48.020;21.378;2022-12-20T03:00:41;102433.91;;;-3.05
63113;BMP280;49206;48.020;21.378;2022-12-20T03:01:49;102442.13;;;-3.01
63113;BMP280;49206;48.020;21.378;2022-12-20T03:02:52;102435.16;;;-3.01
63113;BMP280;49206;48.020;21.378;2022-12-20T03:04:14;102429.75;;;-3.06
63113;BMP280;49206;48.020;21.378;2022-12-20T03:05:19;102428.16;;;-3.07
63113;BMP280;49206;48.020;21.378;2022-12-20T03:06:23;102433.38;;;-3.00
63113;BMP280;49206;48.020;21.378;2022-12-20T03:07:27;102434.16;;;-3.00
63113;BMP280;49206;48.020;21.378;2022-12-20T03:08:31;102435.97;;;-3.00
63113;BMP280;49206;48.020;21.378;2022-12-20T03:09:38;102435.34;;;-3.02
63113;BMP280;49206;48.020;21.378;2022-12-20T03:10:42;102429.19;;;-3.01
63113;BMP280;49206;48.020;21.378;2022-12-20T03:11:45;102431.41;;;-2.98
63113;BMP280;49206;48.020;21.378;2022-12-20T03:12:48;102426.41;;;-3.00
63113;BMP280;49206;48.020;21.378;2022-12-20T03:13:51;102430.63;;;-2.99
63113;BMP280;49206;48.020;21.378;2022-12-20T03:14:53;102433.03;;;-2.97
63113;BMP280;49206;48.020;21.378;2022-12-20T03:15:56;102438.97;;;-2.97
63113;BMP280;49206;48.020;21.378;2022-12-20T03:16:59;102441.72;;;-2.98
63113;BMP280;49206;48.020;21.378;2022-12-20T03:18:02;102444.31;;;-2.98
63113;BMP280;49206;48.020;21.378;2022-12-20T03:19:05;102436.97;;;-3.01
63113;BMP280;49206;48.020;21.378;2022-12-20T03:20:08;102430.03;;;-2.94
63113;BMP280;49206;48.020;21.378;2022-12-20T03:21:13;102435.47;;;-2.89
63113;BMP280;49206;48.020;21.378;2022-12-20T03:22:16;102440.03;;;-2.91
63113;BMP280;49206;48.020;21.378;2022-12-20T03:23:18;102438.78;;;-2.95
63113;BMP280;49206;48.020;21.378;2022-12-20T03:24:24;102435.78;;;-2.99
63113;BMP280;49206;48.020;21.378;2022-12-20T03:25:27;102439.16;;;-2.98
63113;BMP280;49206;48.020;21.378;2022-12-20T03:26:32;102432.22;;;-2.98
63113;BMP280;49206;48.020;21.378;2022-12-20T03:27:35;102434.03;;;-2.92
63113;BMP280;49206;48.020;21.378;2022-12-20T03:28:38;102431.72;;;-2.87
63113;BMP280;49206;48.020;21.378;2022-12-20T03:29:41;102436.88;;;-2.87
63113;BMP280;49206;48.020;21.378;2022-12-20T03:30:46;102434.94;;;-2.85
63113;BMP280;49206;48.020;21.378;2022-12-20T03:31:49;102433.13;;;-2.84
63113;BMP280;49206;48.020;21.378;2022-12-20T03:32:51;102427.59;;;-2.81
63113;BMP280;49206;48.020;21.378;2022-12-20T03:33:55;102431.59;;;-2.79
63113;BMP280;49206;48.020;21.378;2022-12-20T03:34:58;102422.84;;;-2.78
63113;BMP280;49206;48.020;21.378;2022-12-20T03:36:06;102422.66;;;-2.76
63113;BMP280;49206;48.020;21.378;2022-12-20T03:37:09;102421.66;;;-2.75
63113;BMP280;49206;48.020;21.378;2022-12-20T03:38:12;102420.09;;;-2.76
63113;BMP280;49206;48.020;21.378;2022-12-20T03:39:15;102416.91;;;-2.78
63113;BMP280;49206;48.020;21.378;2022-12-20T03:40:18;102425.25;;;-2.76
63113;BMP280;49206;48.020;21.378;2022-12-20T03:41:21;102420.44;;;-2.79
63113;BMP280;49206;48.020;21.378;2022-12-20T03:42:27;102423.28;;;-2.74
63113;BMP280;49206;48.020;21.378;2022-12-20T03:43:30;102415.47;;;-2.81
63113;BMP280;49206;48.020;21.378;2022-12-20T03:44:32;102412.50;;;-2.78
63113;BMP280;49206;48.020;21.378;2022-12-20T03:45:35;102419.91;;;-2.75
63113;BMP280;49206;48.020;21.378;2022-12-20T03:46:38;102418.84;;;-2.80
63113;BMP280;49206;48.020;21.378;2022-12-20T03:47:40;102409.75;;;-2.76
63113;BMP280;49206;48.020;21.378;2022-12-20T03:48:44;102404.38;;;-2.75
63113;BMP280;49206;48.020;21.378;2022-12-20T03:49:47;102416.72;;;-2.70
63113;BMP280;49206;48.020;21.378;2022-12-20T03:50:49;102413.91;;;-2.75
63113;BMP280;49206;48.020;21.378;2022-12-20T03:51:52;102412.91;;;-2.81
63113;BMP280;49206;48.020;21.378;2022-12-20T03:52:54;102408.84;;;-2.90
63113;BMP280;49206;48.020;21.378;2022-12-20T03:53:57;102414.94;;;-2.97
63113;BMP280;49206;48.020;21.378;2022-12-20T03:55:14;102420.34;;;-2.92
63113;BMP280;49206;48.020;21.378;2022-12-20T03:56:18;102415.63;;;-2.89
63113;BMP280;49206;48.020;21.378;2022-12-20T03:57:22;102409.69;;;-2.83
63113;BMP280;49206;48.020;21.378;2022-12-20T03:58:26;102405.75;;;-2.79
63113;BMP280;49206;48.020;21.378;2022-12-20T03:59:29;102403.91;;;-2.85
63113;BMP280;49206;48.020;21.378;2022-12-20T04:00:32;102403.03;;;-2.92
63113;BMP280;49206;48.020;21.378;2022-12-20T04:01:55;102410.09;;;-2.86
63113;BMP280;49206;48.020;21.378;2022-12-20T04:03:21;102407.91;;;-2.82
63113;BMP280;49206;48.020;21.378;2022-12-20T04:04:24;102405.94;;;-2.80
63113;BMP280;49206;48.020;21.378;2022-12-20T04:05:26;102412.69;;;-2.79
63113;BMP280;49206;48.020;21.378;2022-12-20T04:06:30;102417.50;;;-2.76
63113;BMP280;49206;48.020;21.378;2022-12-20T04:07:33;102407.16;;;-2.76
63113;BMP280;49206;48.020;21.378;2022-12-20T04:08:35;102412.44;;;-2.84
63113;BMP280;49206;48.020;21.378;2022-12-20T04:09:38;102412.44;;;-2.84
63113;BMP280;49206;48.020;21.378;2022-12-20T04:10:46;102408.50;;;-2.80
63113;BMP280;49206;48.020;21.378;2022-12-20T04:12:10;102413.84;;;-2.88
63113;BMP280;49206;48.020;21.378;2022-12-20T04:13:13;102414.81;;;-2.89
63113;BMP280;49206;48.020;21.378;2022-12-20T04:14:16;102414.81;;;-2.89
63113;BMP280;49206;48.020;21.378;2022-12-20T04:15:18;102415.44;;;-2.87
63113;BMP280;49206;48.020;21.378;2022-12-20T04:16:27;102417.25;;;-2.81
63113;BMP280;49206;48.020;21.378;2022-12-20T04:17:30;102413.09;;;-2.82
63113;BMP280;49206;48.020;21.378;2022-12-20T04:18:33;102421.38;;;-2.87
63113;BMP280;49206;48.020;21.378;2022-12-20T04:19:36;102418.25;;;-2.82
63113;BMP280;49206;48.020;21.378;2022-12-20T04:20:41;102413.69;;;-2.80
63113;BMP280;49206;48.020;21.378;2022-12-20T04:21:53;102424.19;;;-2.88
63113;BMP280;49206;48.020;21.378;2022-12-20T04:23:14;102422.19;;;-2.86
63113;BMP280;49206;48.020;21.378;2022-12-20T04:24:18;102424.97;;;-2.88
63113;BMP280;49206;48.020;21.378;2022-12-20T04:25:41;102419.25;;;-2.83
63113;BMP280;49206;48.020;21.378;2022-12-20T04:26:44;102420.84;;;-2.82
63113;BMP280;49206;48.020;21.378;2022-12-20T04:27:47;102426.19;;;-2.84
63113;BMP280;49206;48.020;21.378;2022-12-20T04:28:51;102421.78;;;-2.90
63113;BMP280;49206;48.020;21.378;2022-12-20T04:29:54;102423.19;;;-2.87
63113;BMP280;49206;48.020;21.378;2022-12-20T04:30:57;102416.44;;;-2.82
63113;BMP280;49206;48.020;21.378;2022-12-20T04:32:02;102424.41;;;-2.83
63113;BMP280;49206;48.020;21.378;2022-12-20T04:33:05;102414.06;;;-2.83
63113;BMP280;49206;48.020;21.378;2022-12-20T04:34:07;102419.00;;;-2.88
63113;BMP280;49206;48.020;21.378;2022-12-20T04:35:10;102414.94;;;-2.91
63113;BMP280;49206;48.020;21.378;2022-12-20T04:36:16;102413.53;;;-2.93
63113;BMP280;49206;48.020;21.378;2022-12-20T04:37:18;102417.84;;;-2.86
63113;BMP280;49206;48.020;21.378;2022-12-20T04:38:26;102410.50;;;-2.82
63113;BMP280;49206;48.020;21.378;2022-12-20T04:39:28;102415.78;;;-2.90
63113;BMP280;49206;48.020;21.378;2022-12-20T04:40:53;102415.16;;;-2.92
63113;BMP280;49206;48.020;21.378;2022-12-20T04:41:57;102421.50;;;-2.95
63113;BMP280;49206;48.020;21.378;2022-12-20T04:43:00;102419.34;;;-2.91
63113;BMP280;49206;48.020;21.378;2022-12-20T04:44:02;102416.66;;;-2.83
63113;BMP280;49206;48.020;21.378;2022-12-20T04:45:10;102420.44;;;-2.79
63113;BMP280;49206;48.020;21.378;2022-12-20T04:46:12;102424.47;;;-2.77
63113;BMP280;49206;48.020;21.378;2022-12-20T04:47:15;102407.16;;;-2.76
63113;BMP280;49206;48.020;21.378;2022-12-20T04:48:19;102409.09;;;-2.85
63113;BMP280;49206;48.020;21.378;2022-12-20T04:49:42;102405.16;;;-2.81
63113;BMP280;49206;48.020;21.378;2022-12-20T04:50:49;102402.78;;;-2.76
63113;BMP280;49206;48.020;21.378;2022-12-20T04:51:52;102399.53;;;-2.84
63113;BMP280;49206;48.020;21.378;2022-12-20T04:52:54;102402.13;;;-2.84
63113;BMP280;49206;48.020;21.378;2022-12-20T04:54:15;102391.00;;;-2.85
63113;BMP280;49206;48.020;21.378;2022-12-20T04:55:25;102396.72;;;-2.89
63113;BMP280;49206;48.020;21.378;2022-12-20T04:56:28;102391.00;;;-2.85
63113;BMP280;49206;48.020;21.378;2022-12-20T04:57:37;102384.66;;;-2.82
63113;BMP280;49206;48.020;21.378;2022-12-20T04:58:42;102381.88;;;-2.81
63113;BMP280;49206;48.020;21.378;2022-12-20T04:59:44;102382.28;;;-2.77
63113;BMP280;49206;48.020;21.378;2022-12-20T05:00:48;102376.28;;;-2.84
63113;BMP280;49206;48.020;21.378;2022-12-20T05:02:00;102375.31;;;-2.83
63113;BMP280;49206;48.020;21.378;2022-12-20T05:03:19;102382.25;;;-2.84
63113;BMP280;49206;48.020;21.378;2022-12-20T05:04:22;102372.00;;;-2.92
63113;BMP280;49206;48.020;21.378;2022-12-20T05:05:25;102370.72;;;-2.81
63113;BMP280;49206;48.020;21.378;2022-12-20T05:06:29;102382.06;;;-2.82
63113;BMP280;49206;48.020;21.378;2022-12-20T05:07:32;102376.50;;;-2.79
63113;BMP280;49206;48.020;21.378;2022-12-20T05:08:35;102371.97;;;-2.77
63113;BMP280;49206;48.020;21.378;2022-12-20T05:09:38;102371.53;;;-2.81
63113;BMP280;49206;48.020;21.378;2022-12-20T05:10:40;102377.13;;;-2.77
63113;BMP280;49206;48.020;21.378;2022-12-20T05:11:43;102368.75;;;-2.79
63113;BMP280;49206;48.020;21.378;2022-12-20T05:12:46;102368.34;;;-2.83
63113;BMP280;49206;48.020;21.378;2022-12-20T05:13:57;102372.09;;;-2.85
63113;BMP280;49206;48.020;21.378;2022-12-20T05:15:00;102366.44;;;-2.95
63113;BMP280;49206;48.020;21.378;2022-12-20T05:16:04;102366.78;;;-2.98
63113;BMP280;49206;48.020;21.378;2022-12-20T05:17:08;102364.06;;;-2.90
63113;BMP280;49206;48.020;21.378;2022-12-20T05:18:11;102370.25;;;-2.91
63113;BMP280;49206;48.020;21.378;2022-12-20T05:19:28;102373.31;;;-3.02
63113;BMP280;49206;48.020;21.378;2022-12-20T05:20:31;102373.59;;;-2.97
63113;BMP280;49206;48.020;21.378;2022-12-20T05:21:35;102373.59;;;-2.97
63113;BMP280;49206;48.020;21.378;2022-12-20T05:22:56;102377.28;;;-3.06
63113;BMP280;49206;48.020;21.378;2022-12-20T05:24:18;102373.72;;;-3.05
63113;BMP280;49206;48.020;21.378;2022-12-20T05:25:54;102368.59;;;-2.99
63113;BMP280;49206;48.020;21.378;2022-12-20T05:27:15;102363.63;;;-3.00
63113;BMP280;49206;48.020;21.378;2022-12-20T05:28:21;102365.44;;;-2.94
63113;BMP280;49206;48.020;21.378;2022-12-20T05:29:24;102366.84;;;-2.92
63113;BMP280;49206;48.020;21.378;2022-12-20T05:30:28;102364.16;;;-3.05
63113;BMP280;49206;48.020;21.378;2022-12-20T05:31:39;102361.03;;;-3.00
63113;BMP280;49206;48.020;21.378;2022-12-20T05:32:41;102358.25;;;-2.99
63113;BMP280;49206;48.020;21.378;2022-12-20T05:33:45;102357.44;;;-2.99
63113;BMP280;49206;48.020;21.378;2022-12-20T05:34:50;102350.28;;;-3.04
63113;BMP280;49206;48.020;21.378;2022-12-20T05:35:54;102358.84;;;-2.97
63113;BMP280;49206;48.020;21.378;2022-12-20T05:36:57;102355.63;;;-3.05
63113;BMP280;49206;48.020;21.378;2022-12-20T05:38:03;102356.84;;;-3.01
63113;BMP280;49206;48.020;21.378;2022-12-20T05:39:06;102353.50;;;-2.95
63113;BMP280;49206;48.020;21.378;2022-12-20T05:40:12;102353.41;;;-2.87
63113;BMP280;49206;48.020;21.378;2022-12-20T05:41:15;102348.34;;;-2.95
63113;BMP280;49206;48.020;21.378;2022-12-20T05:42:21;102352.94;;;-2.91
63113;BMP280;49206;48.020;21.378;2022-12-20T05:43:26;102355.09;;;-2.94
63113;BMP280;49206;48.020;21.378;2022-12-20T05:44:29;102344.41;;;-2.91
63113;BMP280;49206;48.020;21.378;2022-12-20T05:45:32;102342.06;;;-2.86
63113;BMP280;49206;48.020;21.378;2022-12-20T05:46:39;102337.72;;;-2.79
63113;BMP280;49206;48.020;21.378;2022-12-20T05:47:47;102336.53;;;-2.83
63113;BMP280;49206;48.020;21.378;2022-12-20T05:48:50;102337.50;;;-2.84
63113;BMP280;49206;48.020;21.378;2022-12-20T05:49:52;102334.34;;;-2.80
63113;BMP280;49206;48.020;21.378;2022-12-20T05:50:55;102345.53;;;-2.73
63113;BMP280;49206;48.020;21.378;2022-12-20T05:52:01;102343.72;;;-2.79
63113;BMP280;49206;48.020;21.378;2022-12-20T05:53:07;102348.69;;;-2.77
63113;BMP280;49206;48.020;21.378;2022-12-20T05:54:18;102346.75;;;-2.69
63113;BMP280;49206;48.020;21.378;2022-12-20T05:55:29;102351.66;;;-2.80
63113;BMP280;49206;48.020;21.378;2022-12-20T05:56:33;102352.03;;;-2.83
63113;BMP280;49206;48.020;21.378;2022-12-20T05:57:35;102342.47;;;-2.83
63113;BMP280;49206;48.020;21.378;2022-12-20T05:58:38;102341.75;;;-2.77
63113;BMP280;49206;48.020;21.378;2022-12-20T05:59:43;102341.31;;;-2.80
63113;BMP280;49206;48.020;21.378;2022-12-20T06:00:59;102339.72;;;-2.81
63113;BMP280;49206;48.020;21.378;2022-12-20T06:02:02;102342.53;;;-2.76
63113;BMP280;49206;48.020;21.378;2022-12-20T06:03:06;102347.31;;;-2.73
63113;BMP280;49206;48.020;21.378;2022-12-20T06:04:09;102350.91;;;-2.68
63113;BMP280;49206;48.020;21.378;2022-12-20T06:05:11;102348.34;;;-2.68
63113;BMP280;49206;48.020;21.378;2022-12-20T06:06:14;102344.16;;;-2.69
63113;BMP280;49206;48.020;21.378;2022-12-20T06:07:20;102344.97;;;-2.68
63113;BMP280;49206;48.020;21.378;2022-12-20T06:08:27;102341.38;;;-2.67
63113;BMP280;49206;48.020;21.378;2022-12-20T06:09:31;102343.78;;;-2.66
63113;BMP280;49206;48.020;21.378;2022-12-20T06:10:40;102344.59;;;-2.65
63113;BMP280;49206;48.020;21.378;2022-12-20T06:11:43;102342.19;;;-2.67
63113;BMP280;49206;48.020;21.378;2022-12-20T06:12:48;102344.59;;;-2.65
63113;BMP280;49206;48.020;21.378;2022-12-20T06:13:51;102347.56;;;-2.68
63113;BMP280;49206;48.020;21.378;2022-12-20T06:14:55;102343.16;;;-2.68
63113;BMP280;49206;48.020;21.378;2022-12-20T06:15:58;102347.59;;;-2.62
63113;BMP280;49206;48.020;21.378;2022-12-20T06:17:02;102356.13;;;-2.61
63113;BMP280;49206;48.020;21.378;2022-12-20T06:18:05;102335.66;;;-2.63
63113;BMP280;49206;48.020;21.378;2022-12-20T06:19:08;102342.69;;;-2.57
63113;BMP280;49206;48.020;21.378;2022-12-20T06:20:15;102336.50;;;-2.56
63113;BMP280;49206;48.020;21.378;2022-12-20T06:21:21;102338.69;;;-2.59